sensor_id;sensor_type;location;lat;lon;timestamp;temperature;humidity
26589;DHT22;14235;48.532;8.722;2023-05-07T00:00:37;14.80;99.90
26589;DHT22;14235;48.532;8.722;2023-05-07T00:03:03;14.80;99.90
26589;DHT22;14235;48.532;8.722;2023-05-07T00:05:29;14.80;99.90
26589;DHT22;14235;48.532;8.722;2023-05-07T00:07:55;14.70;99.90
26589;DHT22;14235;48.532;8.722;2023-05-07T00:10:20;14.70;99.90
26589;DHT22;14235;48.532;8.722;2023-05-07T00:12:46;14.70;99.90
26589;DHT22;14235;48.532;8.722;2023-05-07T00:15:12;14.70;99.90
26589;DHT22;14235;48.532;8.722;2023-05-07T00:17:38;14.70;99.90
26589;DHT22;14235;48.532;8.722;2023-05-07T00:20:04;14.70;99.90
26589;DHT22;14235;48.532;8.722;2023-05-07T00:22:31;14.80;99.90
26589;DHT22;14235;48.532;8.722;2023-05-07T00:24:57;14.60;99.90
26589;DHT22;14235;48.532;8.722;2023-05-07T00:27:24;14.60;99.90
26589;DHT22;14235;48.532;8.722;2023-05-07T00:29:50;14.50;99.90
26589;DHT22;14235;48.532;8.722;2023-05-07T00:32:15;14.50;99.90
26589;DHT22;14235;48.532;8.722;2023-05-07T00:34:42;14.50;99.90
26589;DHT22;14235;48.532;8.722;2023-05-07T00:37:08;14.50;99.90
26589;DHT22;14235;48.532;8.722;2023-05-07T00:39:34;14.50;99.90
26589;DHT22;14235;48.532;8.722;2023-05-07T00:42:00;14.40;99.90
26589;DHT22;14235;48.532;8.722;2023-05-07T00:44:26;14.40;99.90
26589;DHT22;14235;48.532;8.722;2023-05-07T00:46:53;14.50;99.90
26589;DHT22;14235;48.532;8.722;2023-05-07T00:49:19;14.40;99.90
26589;DHT22;14235;48.532;8.722;2023-05-07T00:51:46;14.40;99.90
26589;DHT22;14235;48.532;8.722;2023-05-07T00:54:13;14.40;99.90
26589;DHT22;14235;48.532;8.722;2023-05-07T00:56:39;14.40;99.90
26589;DHT22;14235;48.532;8.722;2023-05-07T00:59:05;14.40;99.90
26589;DHT22;14235;48.532;8.722;2023-05-07T01:01:31;14.40;99.90
26589;DHT22;14235;48.532;8.722;2023-05-07T01:03:57;14.40;99.90
26589;DHT22;14235;48.532;8.722;2023-05-07T01:06:25;14.30;99.90
26589;DHT22;14235;48.532;8.722;2023-05-07T01:08:52;14.20;99.90
26589;DHT22;14235;48.532;8.722;2023-05-07T01:11:18;14.30;99.90
26589;DHT22;14235;48.532;8.722;2023-05-07T01:13:47;14.20;99.90
26589;DHT22;14235;48.532;8.722;2023-05-07T01:16:14;14.20;99.90
26589;DHT22;14235;48.532;8.722;2023-05-07T01:18:40;14.20;99.90
26589;DHT22;14235;48.532;8.722;2023-05-07T01:21:07;14.20;99.90
26589;DHT22;14235;48.532;8.722;2023-05-07T01:23:35;14.00;99.90
26589;DHT22;14235;48.532;8.722;2023-05-07T01:26:01;14.10;99.90
26589;DHT22;14235;48.532;8.722;2023-05-07T01:28:27;14.10;99.90
26589;DHT22;14235;48.532;8.722;2023-05-07T01:30:55;14.10;99.90
26589;DHT22;14235;48.532;8.722;2023-05-07T01:33:23;14.10;99.90
26589;DHT22;14235;48.532;8.722;2023-05-07T01:35:53;14.00;99.90
26589;DHT22;14235;48.532;8.722;2023-05-07T01:38:20;13.90;99.90
26589;DHT22;14235;48.532;8.722;2023-05-07T01:40:46;13.90;99.90
26589;DHT22;14235;48.532;8.722;2023-05-07T01:43:12;13.80;99.90
26589;DHT22;14235;48.532;8.722;2023-05-07T01:45:39;13.80;99.90
26589;DHT22;14235;48.532;8.722;2023-05-07T01:48:06;13.80;99.90
26589;DHT22;14235;48.532;8.722;2023-05-07T01:50:32;13.80;99.90
26589;DHT22;14235;48.532;8.722;2023-05-07T01:55:25;13.90;99.90
26589;DHT22;14235;48.532;8.722;2023-05-07T01:57:50;13.90;99.70
26589;DHT22;14235;48.532;8.722;2023-05-07T02:00:16;13.90;99.90
26589;DHT22;14235;48.532;8.722;2023-05-07T02:02:42;13.80;99.90
26589;DHT22;14235;48.532;8.722;2023-05-07T02:05:08;13.70;99.90
26589;DHT22;14235;48.532;8.722;2023-05-07T02:07:34;13.60;99.90
26589;DHT22;14235;48.532;8.722;2023-05-07T02:10:00;13.60;99.90
26589;DHT22;14235;48.532;8.722;2023-05-07T02:12:26;13.50;99.90
26589;DHT22;14235;48.532;8.722;2023-05-07T02:14:51;13.50;99.90
26589;DHT22;14235;48.532;8.722;2023-05-07T02:17:17;13.50;99.90
26589;DHT22;14235;48.532;8.722;2023-05-07T02:19:42;13.50;99.90
26589;DHT22;14235;48.532;8.722;2023-05-07T02:22:09;13.50;99.90
26589;DHT22;14235;48.532;8.722;2023-05-07T02:24:35;13.40;99.90
26589;DHT22;14235;48.532;8.722;2023-05-07T02:27:01;13.60;99.90
26589;DHT22;14235;48.532;8.722;2023-05-07T02:29:28;13.30;99.90
26589;DHT22;14235;48.532;8.722;2023-05-07T02:31:54;13.40;99.90
26589;DHT22;14235;48.532;8.722;2023-05-07T02:34:20;13.30;99.90
26589;DHT22;14235;48.532;8.722;2023-05-07T02:36:46;13.40;99.90
26589;DHT22;14235;48.532;8.722;2023-05-07T02:39:13;13.30;99.90
26589;DHT22;14235;48.532;8.722;2023-05-07T02:41:39;13.30;99.90
26589;DHT22;14235;48.532;8.722;2023-05-07T02:44:05;13.20;99.90
26589;DHT22;14235;48.532;8.722;2023-05-07T02:46:30;13.20;99.90
26589;DHT22;14235;48.532;8.722;2023-05-07T02:48:56;13.20;99.90
26589;DHT22;14235;48.532;8.722;2023-05-07T02:51:22;13.20;99.90
26589;DHT22;14235;48.532;8.722;2023-05-07T02:53:48;13.20;99.90
26589;DHT22;14235;48.532;8.722;2023-05-07T02:56:14;13.20;99.90
26589;DHT22;14235;48.532;8.722;2023-05-07T02:58:40;13.10;99.90
26589;DHT22;14235;48.532;8.722;2023-05-07T03:01:07;13.10;99.90
26589;DHT22;14235;48.532;8.722;2023-05-07T03:03:33;13.00;99.90
26589;DHT22;14235;48.532;8.722;2023-05-07T03:05:59;13.10;99.90
26589;DHT22;14235;48.532;8.722;2023-05-07T03:08:25;13.00;99.90
26589;DHT22;14235;48.532;8.722;2023-05-07T03:10:51;13.10;99.90
26589;DHT22;14235;48.532;8.722;2023-05-07T03:13:16;13.00;99.90
26589;DHT22;14235;48.532;8.722;2023-05-07T03:15:42;13.10;99.90
26589;DHT22;14235;48.532;8.722;2023-05-07T03:18:08;13.00;99.90
26589;DHT22;14235;48.532;8.722;2023-05-07T03:20:34;12.90;99.90
26589;DHT22;14235;48.532;8.722;2023-05-07T03:23:01;12.90;99.90
26589;DHT22;14235;48.532;8.722;2023-05-07T03:25:27;12.80;99.90
26589;DHT22;14235;48.532;8.722;2023-05-07T03:27:53;12.80;99.90
26589;DHT22;14235;48.532;8.722;2023-05-07T03:30:19;12.80;99.90
26589;DHT22;14235;48.532;8.722;2023-05-07T03:32:45;12.80;99.90
26589;DHT22;14235;48.532;8.722;2023-05-07T03:35:11;12.80;99.90
26589;DHT22;14235;48.532;8.722;2023-05-07T03:37:38;12.70;99.90
26589;DHT22;14235;48.532;8.722;2023-05-07T03:40:04;12.70;99.90
26589;DHT22;14235;48.532;8.722;2023-05-07T03:42:30;12.60;99.90
26589;DHT22;14235;48.532;8.722;2023-05-07T03:44:56;12.50;99.90
26589;DHT22;14235;48.532;8.722;2023-05-07T03:47:22;12.50;99.90
26589;DHT22;14235;48.532;8.722;2023-05-07T03:49:47;12.40;99.90
26589;DHT22;14235;48.532;8.722;2023-05-07T03:52:14;12.50;99.90
26589;DHT22;14235;48.532;8.722;2023-05-07T03:54:40;12.50;99.90
26589;DHT22;14235;48.532;8.722;2023-05-07T03:57:06;12.50;99.90
26589;DHT22;14235;48.532;8.722;2023-05-07T03:59:31;12.40;99.90
26589;DHT22;14235;48.532;8.722;2023-05-07T04:01:57;12.30;99.90
26589;DHT22;14235;48.532;8.722;2023-05-07T04:04:23;12.40;99.90
26589;DHT22;14235;48.532;8.722;2023-05-07T04:06:49;12.40;99.90
26589;DHT22;14235;48.532;8.722;2023-05-07T04:09:14;12.40;99.90
26589;DHT22;14235;48.532;8.722;2023-05-07T04:11:40;12.30;99.90
26589;DHT22;14235;48.532;8.722;2023-05-07T04:14:06;12.30;99.90
26589;DHT22;14235;48.532;8.722;2023-05-07T04:16:32;12.30;99.90
26589;DHT22;14235;48.532;8.722;2023-05-07T04:18:57;12.30;99.90
26589;DHT22;14235;48.532;8.722;2023-05-07T04:21:23;12.30;99.90
26589;DHT22;14235;48.532;8.722;2023-05-07T04:23:49;12.30;99.90
26589;DHT22;14235;48.532;8.722;2023-05-07T04:26:15;12.30;99.90
26589;DHT22;14235;48.532;8.722;2023-05-07T04:28:41;12.30;99.90
26589;DHT22;14235;48.532;8.722;2023-05-07T04:31:07;12.30;99.90
26589;DHT22;14235;48.532;8.722;2023-05-07T04:33:34;12.20;99.90
26589;DHT22;14235;48.532;8.722;2023-05-07T04:36:03;12.30;99.90
26589;DHT22;14235;48.532;8.722;2023-05-07T04:38:32;12.20;99.90
26589;DHT22;14235;48.532;8.722;2023-05-07T04:41:08;12.30;99.90
26589;DHT22;14235;48.532;8.722;2023-05-07T04:43:34;12.30;99.90
26589;DHT22;14235;48.532;8.722;2023-05-07T04:46:00;12.20;99.90
26589;DHT22;14235;48.532;8.722;2023-05-07T04:48:26;12.20;99.90
26589;DHT22;14235;48.532;8.722;2023-05-07T04:50:52;12.30;99.90
26589;DHT22;14235;48.532;8.722;2023-05-07T04:53:17;12.30;99.90
26589;DHT22;14235;48.532;8.722;2023-05-07T04:55:44;12.30;99.90
26589;DHT22;14235;48.532;8.722;2023-05-07T04:58:10;12.30;99.90
26589;DHT22;14235;48.532;8.722;2023-05-07T05:00:37;12.30;99.90
26589;DHT22;14235;48.532;8.722;2023-05-07T05:03:02;12.40;99.90
26589;DHT22;14235;48.532;8.722;2023-05-07T05:05:28;12.30;99.90
26589;DHT22;14235;48.532;8.722;2023-05-07T05:07:54;12.40;99.90
26589;DHT22;14235;48.532;8.722;2023-05-07T05:10:21;12.40;99.90
26589;DHT22;14235;48.532;8.722;2023-05-07T05:12:47;12.40;99.90
26589;DHT22;14235;48.532;8.722;2023-05-07T05:15:13;12.50;99.90
26589;DHT22;14235;48.532;8.722;2023-05-07T05:17:39;12.50;99.90
26589;DHT22;14235;48.532;8.722;2023-05-07T05:20:05;12.70;99.90
26589;DHT22;14235;48.532;8.722;2023-05-07T05:22:31;12.70;99.90
26589;DHT22;14235;48.532;8.722;2023-05-07T05:24:57;12.80;99.90
26589;DHT22;14235;48.532;8.722;2023-05-07T05:27:23;12.80;99.90
26589;DHT22;14235;48.532;8.722;2023-05-07T05:29:49;12.90;99.90
26589;DHT22;14235;48.532;8.722;2023-05-07T05:32:15;13.00;99.90
26589;DHT22;14235;48.532;8.722;2023-05-07T05:34:40;13.00;99.90
26589;DHT22;14235;48.532;8.722;2023-05-07T05:37:06;13.10;99.90
26589;DHT22;14235;48.532;8.722;2023-05-07T05:39:32;13.10;99.90
26589;DHT22;14235;48.532;8.722;2023-05-07T05:41:57;13.10;99.90
26589;DHT22;14235;48.532;8.722;2023-05-07T05:44:23;13.10;99.90
26589;DHT22;14235;48.532;8.722;2023-05-07T05:46:49;13.20;99.90
26589;DHT22;14235;48.532;8.722;2023-05-07T05:49:15;13.20;99.90
26589;DHT22;14235;48.532;8.722;2023-05-07T05:51:41;13.30;99.90
26589;DHT22;14235;48.532;8.722;2023-05-07T05:54:10;13.30;99.90
26589;DHT22;14235;48.532;8.722;2023-05-07T06:07:10;13.40;99.90
26589;DHT22;14235;48.532;8.722;2023-05-07T06:20:27;13.60;99.90
26589;DHT22;14235;48.532;8.722;2023-05-07T06:22:55;13.70;99.90
26589;DHT22;14235;48.532;8.722;2023-05-07T06:25:21;13.80;99.90
26589;DHT22;14235;48.532;8.722;2023-05-07T06:27:46;13.90;99.90
26589;DHT22;14235;48.532;8.722;2023-05-07T06:30:15;14.00;99.90
26589;DHT22;14235;48.532;8.722;2023-05-07T06:32:42;14.00;99.90
26589;DHT22;14235;48.532;8.722;2023-05-07T06:35:08;14.00;99.90
26589;DHT22;14235;48.532;8.722;2023-05-07T06:37:34;14.10;99.90
26589;DHT22;14235;48.532;8.722;2023-05-07T06:40:00;14.10;99.90
26589;DHT22;14235;48.532;8.722;2023-05-07T06:42:25;14.20;99.90
26589;DHT22;14235;48.532;8.722;2023-05-07T06:44:52;14.30;99.90
26589;DHT22;14235;48.532;8.722;2023-05-07T06:47:17;14.40;99.90
26589;DHT22;14235;48.532;8.722;2023-05-07T06:49:43;14.40;99.90
26589;DHT22;14235;48.532;8.722;2023-05-07T06:52:12;14.60;99.90
26589;DHT22;14235;48.532;8.722;2023-05-07T06:54:37;14.60;99.90
26589;DHT22;14235;48.532;8.722;2023-05-07T06:57:03;14.70;99.90
26589;DHT22;14235;48.532;8.722;2023-05-07T06:59:29;14.70;99.90
26589;DHT22;14235;48.532;8.722;2023-05-07T07:01:55;14.90;99.90
26589;DHT22;14235;48.532;8.722;2023-05-07T07:04:21;15.00;99.90
26589;DHT22;14235;48.532;8.722;2023-05-07T07:06:48;15.10;99.90
26589;DHT22;14235;48.532;8.722;2023-05-07T07:09:14;15.30;99.90
26589;DHT22;14235;48.532;8.722;2023-05-07T07:11:40;15.30;99.90
26589;DHT22;14235;48.532;8.722;2023-05-07T07:14:05;15.30;99.90
26589;DHT22;14235;48.532;8.722;2023-05-07T07:16:31;15.40;99.90
26589;DHT22;14235;48.532;8.722;2023-05-07T07:18:57;15.40;99.90
26589;DHT22;14235;48.532;8.722;2023-05-07T07:21:26;15.40;99.90
26589;DHT22;14235;48.532;8.722;2023-05-07T07:23:55;15.40;99.90
26589;DHT22;14235;48.532;8.722;2023-05-07T07:26:30;15.50;99.90
26589;DHT22;14235;48.532;8.722;2023-05-07T07:28:59;15.50;99.90
26589;DHT22;14235;48.532;8.722;2023-05-07T07:31:24;15.50;99.90
26589;DHT22;14235;48.532;8.722;2023-05-07T07:33:56;15.50;99.90
26589;DHT22;14235;48.532;8.722;2023-05-07T07:36:22;15.40;99.90
26589;DHT22;14235;48.532;8.722;2023-05-07T07:38:54;15.50;99.90
26589;DHT22;14235;48.532;8.722;2023-05-07T07:41:20;15.50;99.90
26589;DHT22;14235;48.532;8.722;2023-05-07T07:43:48;15.50;99.90
26589;DHT22;14235;48.532;8.722;2023-05-07T07:46:19;15.50;99.90
26589;DHT22;14235;48.532;8.722;2023-05-07T07:48:44;15.50;99.90
26589;DHT22;14235;48.532;8.722;2023-05-07T07:51:10;15.60;99.90
26589;DHT22;14235;48.532;8.722;2023-05-07T07:53:41;15.60;99.90
26589;DHT22;14235;48.532;8.722;2023-05-07T07:56:16;15.60;99.90
26589;DHT22;14235;48.532;8.722;2023-05-07T07:58:44;15.70;99.90
26589;DHT22;14235;48.532;8.722;2023-05-07T08:01:10;15.70;99.90
26589;DHT22;14235;48.532;8.722;2023-05-07T08:03:40;15.90;99.90
26589;DHT22;14235;48.532;8.722;2023-05-07T08:06:09;16.00;99.90
26589;DHT22;14235;48.532;8.722;2023-05-07T08:08:37;16.00;99.90
26589;DHT22;14235;48.532;8.722;2023-05-07T08:11:03;16.10;99.90
26589;DHT22;14235;48.532;8.722;2023-05-07T08:13:32;16.10;99.90
26589;DHT22;14235;48.532;8.722;2023-05-07T08:16:03;16.30;99.90
26589;DHT22;14235;48.532;8.722;2023-05-07T08:18:29;16.20;99.90
26589;DHT22;14235;48.532;8.722;2023-05-07T08:21:04;16.30;99.90
26589;DHT22;14235;48.532;8.722;2023-05-07T08:23:35;16.40;99.90
26589;DHT22;14235;48.532;8.722;2023-05-07T08:26:08;16.40;99.90
26589;DHT22;14235;48.532;8.722;2023-05-07T08:28:38;16.40;99.90
26589;DHT22;14235;48.532;8.722;2023-05-07T08:31:42;16.50;99.90
26589;DHT22;14235;48.532;8.722;2023-05-07T08:34:20;16.50;99.90
26589;DHT22;14235;48.532;8.722;2023-05-07T08:36:48;16.60;99.90
26589;DHT22;14235;48.532;8.722;2023-05-07T08:39:23;16.70;99.90
26589;DHT22;14235;48.532;8.722;2023-05-07T08:42:17;16.70;99.90
26589;DHT22;14235;48.532;8.722;2023-05-07T08:47:59;16.80;99.90
26589;DHT22;14235;48.532;8.722;2023-05-07T08:50:30;16.90;99.90
26589;DHT22;14235;48.532;8.722;2023-05-07T08:52:56;16.90;99.90
26589;DHT22;14235;48.532;8.722;2023-05-07T08:55:23;17.00;99.90
26589;DHT22;14235;48.532;8.722;2023-05-07T08:57:57;17.10;99.90
26589;DHT22;14235;48.532;8.722;2023-05-07T09:00:27;17.20;99.90
26589;DHT22;14235;48.532;8.722;2023-05-07T09:02:53;17.20;99.90
26589;DHT22;14235;48.532;8.722;2023-05-07T09:05:24;17.20;99.90
26589;DHT22;14235;48.532;8.722;2023-05-07T09:07:59;17.20;99.90
26589;DHT22;14235;48.532;8.722;2023-05-07T09:10:31;17.40;99.90
26589;DHT22;14235;48.532;8.722;2023-05-07T09:13:28;17.40;99.90
26589;DHT22;14235;48.532;8.722;2023-05-07T09:16:39;17.50;99.90
26589;DHT22;14235;48.532;8.722;2023-05-07T09:19:10;17.60;99.90
26589;DHT22;14235;48.532;8.722;2023-05-07T09:21:44;17.70;99.90
26589;DHT22;14235;48.532;8.722;2023-05-07T09:24:19;17.70;99.90
26589;DHT22;14235;48.532;8.722;2023-05-07T09:27:12;17.80;99.90
26589;DHT22;14235;48.532;8.722;2023-05-07T09:29:46;17.80;99.90
26589;DHT22;14235;48.532;8.722;2023-05-07T09:32:12;17.90;99.90
26589;DHT22;14235;48.532;8.722;2023-05-07T09:34:44;17.90;99.90
26589;DHT22;14235;48.532;8.722;2023-05-07T09:37:15;18.10;99.90
26589;DHT22;14235;48.532;8.722;2023-05-07T09:39:50;18.20;99.90
26589;DHT22;14235;48.532;8.722;2023-05-07T09:42:23;18.20;99.90
26589;DHT22;14235;48.532;8.722;2023-05-07T09:44:55;18.30;99.90
26589;DHT22;14235;48.532;8.722;2023-05-07T09:47:39;18.30;99.90
26589;DHT22;14235;48.532;8.722;2023-05-07T09:50:14;18.30;99.90
26589;DHT22;14235;48.532;8.722;2023-05-07T09:52:43;18.30;99.90
26589;DHT22;14235;48.532;8.722;2023-05-07T09:55:12;18.50;99.90
26589;DHT22;14235;48.532;8.722;2023-05-07T09:57:42;18.50;99.90
26589;DHT22;14235;48.532;8.722;2023-05-07T10:00:08;18.60;99.90
26589;DHT22;14235;48.532;8.722;2023-05-07T10:02:36;18.60;99.90
26589;DHT22;14235;48.532;8.722;2023-05-07T10:05:05;18.70;99.90
26589;DHT22;14235;48.532;8.722;2023-05-07T10:07:35;18.70;99.90
26589;DHT22;14235;48.532;8.722;2023-05-07T10:10:01;18.80;99.90
26589;DHT22;14235;48.532;8.722;2023-05-07T10:12:37;18.80;99.90
26589;DHT22;14235;48.532;8.722;2023-05-07T10:15:07;19.00;99.90
26589;DHT22;14235;48.532;8.722;2023-05-07T10:17:38;19.10;99.90
26589;DHT22;14235;48.532;8.722;2023-05-07T10:20:08;19.10;99.90
26589;DHT22;14235;48.532;8.722;2023-05-07T10:23:06;19.20;99.90
26589;DHT22;14235;48.532;8.722;2023-05-07T10:25:42;19.30;99.90
26589;DHT22;14235;48.532;8.722;2023-05-07T10:28:09;19.40;99.90
26589;DHT22;14235;48.532;8.722;2023-05-07T10:31:11;19.50;99.90
26589;DHT22;14235;48.532;8.722;2023-05-07T10:33:39;19.60;99.90
26589;DHT22;14235;48.532;8.722;2023-05-07T10:36:05;19.70;99.90
26589;DHT22;14235;48.532;8.722;2023-05-07T10:38:41;19.70;99.90
26589;DHT22;14235;48.532;8.722;2023-05-07T10:41:07;19.80;99.90
26589;DHT22;14235;48.532;8.722;2023-05-07T10:43:41;19.90;99.90
26589;DHT22;14235;48.532;8.722;2023-05-07T10:46:18;20.00;99.90
26589;DHT22;14235;48.532;8.722;2023-05-07T10:55:21;20.20;99.90
26589;DHT22;14235;48.532;8.722;2023-05-07T10:57:52;20.20;99.70
26589;DHT22;14235;48.532;8.722;2023-05-07T11:03:06;20.10;98.90
26589;DHT22;14235;48.532;8.722;2023-05-07T11:05:50;20.10;98.40
26589;DHT22;14235;48.532;8.722;2023-05-07T11:11:57;20.00;99.00
26589;DHT22;14235;48.532;8.722;2023-05-07T11:14:48;19.90;99.60
26589;DHT22;14235;48.532;8.722;2023-05-07T11:17:26;19.80;99.90
26589;DHT22;14235;48.532;8.722;2023-05-07T11:19:58;19.80;99.90
26589;DHT22;14235;48.532;8.722;2023-05-07T11:22:36;19.80;99.90
26589;DHT22;14235;48.532;8.722;2023-05-07T11:25:06;19.80;99.90
26589;DHT22;14235;48.532;8.722;2023-05-07T11:27:38;19.90;97.90
26589;DHT22;14235;48.532;8.722;2023-05-07T11:30:09;19.90;96.40
26589;DHT22;14235;48.532;8.722;2023-05-07T11:32:37;19.80;95.60
26589;DHT22;14235;48.532;8.722;2023-05-07T11:35:09;19.60;95.60
26589;DHT22;14235;48.532;8.722;2023-05-07T11:37:38;19.50;96.10
26589;DHT22;14235;48.532;8.722;2023-05-07T11:40:15;19.40;96.80
26589;DHT22;14235;48.532;8.722;2023-05-07T11:42:46;19.30;98.00
26589;DHT22;14235;48.532;8.722;2023-05-07T11:45:24;19.10;99.10
26589;DHT22;14235;48.532;8.722;2023-05-07T11:47:57;19.10;99.70
26589;DHT22;14235;48.532;8.722;2023-05-07T11:50:38;19.00;99.60
26589;DHT22;14235;48.532;8.722;2023-05-07T11:53:34;19.00;99.90
26589;DHT22;14235;48.532;8.722;2023-05-07T11:56:09;18.90;99.90
26589;DHT22;14235;48.532;8.722;2023-05-07T11:58:46;18.80;99.90
26589;DHT22;14235;48.532;8.722;2023-05-07T12:01:13;18.70;99.90
26589;DHT22;14235;48.532;8.722;2023-05-07T12:03:45;18.70;99.90
26589;DHT22;14235;48.532;8.722;2023-05-07T12:06:30;18.70;99.90
26589;DHT22;14235;48.532;8.722;2023-05-07T12:09:04;18.60;99.90
26589;DHT22;14235;48.532;8.722;2023-05-07T12:11:45;18.60;99.90
26589;DHT22;14235;48.532;8.722;2023-05-07T12:14:13;18.50;99.90
26589;DHT22;14235;48.532;8.722;2023-05-07T12:16:43;18.40;99.90
26589;DHT22;14235;48.532;8.722;2023-05-07T12:19:12;18.40;99.90
26589;DHT22;14235;48.532;8.722;2023-05-07T12:21:42;18.50;99.90
26589;DHT22;14235;48.532;8.722;2023-05-07T12:24:08;18.40;99.90
26589;DHT22;14235;48.532;8.722;2023-05-07T12:26:38;18.30;99.90
26589;DHT22;14235;48.532;8.722;2023-05-07T12:29:17;18.20;99.90
26589;DHT22;14235;48.532;8.722;2023-05-07T12:31:50;18.20;99.90
26589;DHT22;14235;48.532;8.722;2023-05-07T12:34:16;18.10;99.90
26589;DHT22;14235;48.532;8.722;2023-05-07T12:36:42;18.10;99.90
26589;DHT22;14235;48.532;8.722;2023-05-07T12:39:10;18.00;99.90
26589;DHT22;14235;48.532;8.722;2023-05-07T12:41:54;17.90;99.90
26589;DHT22;14235;48.532;8.722;2023-05-07T12:47:31;17.80;99.90
26589;DHT22;14235;48.532;8.722;2023-05-07T12:50:00;17.70;99.90
26589;DHT22;14235;48.532;8.722;2023-05-07T12:52:28;17.50;99.90
26589;DHT22;14235;48.532;8.722;2023-05-07T12:54:59;17.30;99.90
26589;DHT22;14235;48.532;8.722;2023-05-07T12:57:47;17.20;99.90
26589;DHT22;14235;48.532;8.722;2023-05-07T13:00:37;17.00;99.90
26589;DHT22;14235;48.532;8.722;2023-05-07T13:03:31;16.90;99.90
26589;DHT22;14235;48.532;8.722;2023-05-07T13:06:08;17.00;99.90
26589;DHT22;14235;48.532;8.722;2023-05-07T13:08:39;16.80;99.90
26589;DHT22;14235;48.532;8.722;2023-05-07T13:11:07;16.70;99.90
26589;DHT22;14235;48.532;8.722;2023-05-07T13:13:34;16.70;99.90
26589;DHT22;14235;48.532;8.722;2023-05-07T13:18:26;17.30;99.90
26589;DHT22;14235;48.532;8.722;2023-05-07T13:20:53;16.80;99.90
26589;DHT22;14235;48.532;8.722;2023-05-07T13:23:19;16.70;99.90
26589;DHT22;14235;48.532;8.722;2023-05-07T13:25:44;16.70;99.90
26589;DHT22;14235;48.532;8.722;2023-05-07T13:28:10;16.90;99.90
26589;DHT22;14235;48.532;8.722;2023-05-07T13:30:36;16.70;99.90
26589;DHT22;14235;48.532;8.722;2023-05-07T13:33:01;16.80;99.90
26589;DHT22;14235;48.532;8.722;2023-05-07T13:35:27;16.70;99.90
26589;DHT22;14235;48.532;8.722;2023-05-07T13:37:53;16.80;99.90
26589;DHT22;14235;48.532;8.722;2023-05-07T13:40:20;16.70;99.90
26589;DHT22;14235;48.532;8.722;2023-05-07T13:42:46;16.70;99.90
26589;DHT22;14235;48.532;8.722;2023-05-07T13:45:11;16.70;99.90
26589;DHT22;14235;48.532;8.722;2023-05-07T13:47:40;16.70;99.90
26589;DHT22;14235;48.532;8.722;2023-05-07T13:50:07;16.80;99.90
26589;DHT22;14235;48.532;8.722;2023-05-07T13:52:32;16.70;99.90
26589;DHT22;14235;48.532;8.722;2023-05-07T13:54:58;16.80;99.90
26589;DHT22;14235;48.532;8.722;2023-05-07T13:57:24;16.70;99.90
26589;DHT22;14235;48.532;8.722;2023-05-07T13:59:50;16.70;99.90
26589;DHT22;14235;48.532;8.722;2023-05-07T14:02:15;16.80;99.90
26589;DHT22;14235;48.532;8.722;2023-05-07T14:04:41;16.80;99.90
26589;DHT22;14235;48.532;8.722;2023-05-07T14:07:06;16.70;99.90
26589;DHT22;14235;48.532;8.722;2023-05-07T14:09:32;16.80;99.90
26589;DHT22;14235;48.532;8.722;2023-05-07T14:11:58;16.90;99.90
26589;DHT22;14235;48.532;8.722;2023-05-07T14:14:24;16.80;99.90
26589;DHT22;14235;48.532;8.722;2023-05-07T14:16:49;16.80;99.90
26589;DHT22;14235;48.532;8.722;2023-05-07T14:19:15;16.90;99.90
26589;DHT22;14235;48.532;8.722;2023-05-07T14:21:41;16.90;99.90
26589;DHT22;14235;48.532;8.722;2023-05-07T14:24:07;17.00;99.90
26589;DHT22;14235;48.532;8.722;2023-05-07T14:26:34;16.90;99.90
26589;DHT22;14235;48.532;8.722;2023-05-07T14:29:00;16.90;99.90
26589;DHT22;14235;48.532;8.722;2023-05-07T14:31:26;16.90;99.90
26589;DHT22;14235;48.532;8.722;2023-05-07T14:33:51;17.00;99.90
26589;DHT22;14235;48.532;8.722;2023-05-07T14:36:17;17.10;99.90
26589;DHT22;14235;48.532;8.722;2023-05-07T14:38:45;17.20;99.90
26589;DHT22;14235;48.532;8.722;2023-05-07T14:41:11;17.30;99.90
26589;DHT22;14235;48.532;8.722;2023-05-07T14:43:38;17.30;99.90
26589;DHT22;14235;48.532;8.722;2023-05-07T14:46:03;17.30;99.90
26589;DHT22;14235;48.532;8.722;2023-05-07T14:48:29;17.40;99.90
26589;DHT22;14235;48.532;8.722;2023-05-07T14:50:54;17.50;99.90
26589;DHT22;14235;48.532;8.722;2023-05-07T14:53:21;17.40;99.90
26589;DHT22;14235;48.532;8.722;2023-05-07T14:55:47;17.60;99.90
26589;DHT22;14235;48.532;8.722;2023-05-07T14:58:13;17.70;99.90
26589;DHT22;14235;48.532;8.722;2023-05-07T15:00:39;17.70;99.90
26589;DHT22;14235;48.532;8.722;2023-05-07T15:03:09;17.90;99.90
26589;DHT22;14235;48.532;8.722;2023-05-07T15:05:36;17.70;99.90
26589;DHT22;14235;48.532;8.722;2023-05-07T15:08:01;17.80;99.90
26589;DHT22;14235;48.532;8.722;2023-05-07T15:10:27;17.70;99.90
26589;DHT22;14235;48.532;8.722;2023-05-07T15:12:53;17.60;99.90
26589;DHT22;14235;48.532;8.722;2023-05-07T15:15:18;17.80;99.90
26589;DHT22;14235;48.532;8.722;2023-05-07T15:17:44;17.90;99.90
26589;DHT22;14235;48.532;8.722;2023-05-07T15:20:09;17.90;99.90
26589;DHT22;14235;48.532;8.722;2023-05-07T15:22:36;17.90;99.90
26589;DHT22;14235;48.532;8.722;2023-05-07T15:25:03;18.00;99.90
26589;DHT22;14235;48.532;8.722;2023-05-07T15:27:29;18.00;99.90
26589;DHT22;14235;48.532;8.722;2023-05-07T15:29:56;18.10;99.90
26589;DHT22;14235;48.532;8.722;2023-05-07T15:32:21;18.20;99.90
26589;DHT22;14235;48.532;8.722;2023-05-07T15:34:47;18.30;99.90
26589;DHT22;14235;48.532;8.722;2023-05-07T15:37:13;18.30;99.90
26589;DHT22;14235;48.532;8.722;2023-05-07T15:39:38;18.30;99.90
26589;DHT22;14235;48.532;8.722;2023-05-07T15:42:04;18.30;99.90
26589;DHT22;14235;48.532;8.722;2023-05-07T15:44:30;18.30;99.90
26589;DHT22;14235;48.532;8.722;2023-05-07T15:46:58;18.30;99.90
26589;DHT22;14235;48.532;8.722;2023-05-07T15:49:24;18.30;99.90
26589;DHT22;14235;48.532;8.722;2023-05-07T15:51:50;18.40;99.90
26589;DHT22;14235;48.532;8.722;2023-05-07T15:54:16;18.40;99.90
26589;DHT22;14235;48.532;8.722;2023-05-07T15:56:45;18.30;99.90
26589;DHT22;14235;48.532;8.722;2023-05-07T15:59:11;18.30;99.90
26589;DHT22;14235;48.532;8.722;2023-05-07T16:01:37;18.30;99.90
26589;DHT22;14235;48.532;8.722;2023-05-07T16:04:03;18.20;99.90
26589;DHT22;14235;48.532;8.722;2023-05-07T16:06:29;18.10;99.90
26589;DHT22;14235;48.532;8.722;2023-05-07T16:08:55;18.00;99.90
26589;DHT22;14235;48.532;8.722;2023-05-07T16:11:21;18.10;99.90
26589;DHT22;14235;48.532;8.722;2023-05-07T16:13:47;18.00;99.90
26589;DHT22;14235;48.532;8.722;2023-05-07T16:16:12;18.00;99.90
26589;DHT22;14235;48.532;8.722;2023-05-07T16:18:38;17.90;99.90
26589;DHT22;14235;48.532;8.722;2023-05-07T16:21:05;17.90;99.90
26589;DHT22;14235;48.532;8.722;2023-05-07T16:23:30;17.90;99.90